createdAt,value
2022-11-12T09:40:58.541Z,7.80
2022-11-12T09:42:01.937Z,13.70
2022-11-12T09:42:59.700Z,13.90
2022-11-12T09:43:58.719Z,13.70
2022-11-12T09:44:58.685Z,13.50
2022-11-12T09:46:26.221Z,13.60
2022-11-12T09:47:00.703Z,13.70
2022-11-12T09:47:58.703Z,14.10
2022-11-12T09:48:58.624Z,12.30
2022-11-12T09:49:58.623Z,14.60
2022-11-12T09:50:58.606Z,14.70
2022-11-12T09:51:58.640Z,15.10
2022-11-12T09:52:58.731Z,14.30
2022-11-12T09:53:58.612Z,13.60
2022-11-12T09:54:58.578Z,14.90
2022-11-12T09:55:58.536Z,14.80
2022-11-12T09:56:58.690Z,14.80
2022-11-12T09:57:58.520Z,14.90
2022-11-12T10:01:07.835Z,14.60
2022-11-12T10:01:14.330Z,14.00
2022-11-12T10:02:14.398Z,12.60
2022-11-12T10:03:14.298Z,13.50
2022-11-12T10:04:14.269Z,13.00
2022-11-12T10:05:14.303Z,12.30
2022-11-12T10:06:18.149Z,12.50
2022-11-12T10:07:15.334Z,13.10
2022-11-12T10:08:14.216Z,12.40
2022-11-12T10:09:14.214Z,12.60
2022-11-12T10:10:14.227Z,12.80
2022-11-12T10:11:14.187Z,12.40
2022-11-12T10:12:14.286Z,12.50
2022-11-12T10:13:14.215Z,11.90
2022-11-12T10:14:14.164Z,11.40
2022-11-12T10:15:14.136Z,11.90
2022-11-12T10:16:14.116Z,10.50
2022-11-12T10:17:15.440Z,11.10
2022-11-12T10:18:14.164Z,10.70
2022-11-12T10:19:14.169Z,11.00
2022-11-12T10:20:14.973Z,10.70
2022-11-12T10:21:14.330Z,10.20
2022-11-12T10:22:14.153Z,10.00
2022-11-12T10:23:14.121Z,10.20
2022-11-12T10:24:14.178Z,9.50
2022-11-12T10:25:14.039Z,9.40
2022-11-12T10:26:14.015Z,9.20
2022-11-12T10:27:14.012Z,9.80
2022-11-12T10:28:14.106Z,9.80
2022-11-12T10:29:14.005Z,9.40
2022-11-12T10:30:13.988Z,9.90
2022-11-12T10:31:13.988Z,9.90
2022-11-12T10:32:13.984Z,10.30
2022-11-12T10:33:13.987Z,10.20
2022-11-12T10:34:13.985Z,10.10
2022-11-12T10:35:13.930Z,10.60
2022-11-12T10:36:13.934Z,10.60
2022-11-12T10:37:13.890Z,10.50
2022-11-12T10:38:13.892Z,9.70
2022-11-12T10:39:13.891Z,10.10
2022-11-12T10:40:13.864Z,10.20
2022-11-12T10:41:13.850Z,11.00
2022-11-12T10:42:13.922Z,11.60
2022-11-12T10:43:13.861Z,11.10
2022-11-12T10:44:13.996Z,12.60
2022-11-12T10:45:13.854Z,12.00
2022-11-12T10:46:13.806Z,12.20
2022-11-12T10:47:13.785Z,11.90
2022-11-12T10:48:13.875Z,11.70
2022-11-12T10:49:13.767Z,11.80
2022-11-12T10:50:13.776Z,11.80
2022-11-12T10:51:13.742Z,11.80
2022-11-12T10:52:13.743Z,12.00
2022-11-12T10:53:13.778Z,11.80
2022-11-12T10:54:13.770Z,12.00
2022-11-12T10:55:13.690Z,11.40
2022-11-12T10:56:13.686Z,11.70
2022-11-12T10:57:13.718Z,11.60
2022-11-12T10:58:13.670Z,10.00
2022-11-12T10:59:13.679Z,9.30
2022-11-12T11:00:13.751Z,9.70
2022-11-12T11:01:13.653Z,9.20
2022-11-12T11:02:13.671Z,8.80
2022-11-12T11:03:13.654Z,8.80
2022-11-12T11:04:13.664Z,8.80
2022-11-12T11:05:13.597Z,9.30
2022-11-12T11:06:13.611Z,9.40
2022-11-12T11:07:13.603Z,9.30
2022-11-12T11:08:13.573Z,9.10
2022-11-12T11:09:13.600Z,9.00
2022-11-12T11:10:13.540Z,8.90
2022-11-12T11:11:13.531Z,8.60
2022-11-12T11:12:13.512Z,8.60
2022-11-12T11:13:13.504Z,8.70
2022-11-12T11:14:13.579Z,8.90
2022-11-12T11:15:13.475Z,8.80
2022-11-12T11:16:13.539Z,8.90
2022-11-12T11:17:13.848Z,9.00
2022-11-12T11:18:13.443Z,8.90
2022-11-12T11:19:13.482Z,8.80
2022-11-12T11:20:13.446Z,8.90
2022-11-12T11:21:13.404Z,8.30
2022-11-12T11:22:13.396Z,8.90
2022-11-12T11:23:13.379Z,8.50
2022-11-12T11:24:13.425Z,8.70
2022-11-12T11:25:13.392Z,8.60
2022-11-12T11:26:13.681Z,8.90
2022-11-12T11:27:13.348Z,8.40
2022-11-12T11:28:13.322Z,8.40
2022-11-12T11:29:13.310Z,8.10
2022-11-12T11:30:13.340Z,8.70
2022-11-12T11:31:14.295Z,8.00
2022-11-12T11:32:13.361Z,7.80
2022-11-12T11:33:13.264Z,8.40
2022-11-12T11:34:13.255Z,8.50
2022-11-12T11:35:13.249Z,8.30
2022-11-12T11:36:13.242Z,9.00
2022-11-12T11:37:13.218Z,8.30
2022-11-12T11:38:13.219Z,8.70
2022-11-12T11:39:13.214Z,8.40
2022-11-12T11:40:13.208Z,7.90
2022-11-12T11:41:13.231Z,8.50
2022-11-12T11:42:13.164Z,9.00
2022-11-12T11:43:13.161Z,8.70
2022-11-12T11:44:14.204Z,9.30
2022-11-12T11:45:14.115Z,9.10
2022-11-12T11:46:13.170Z,9.00
2022-11-12T11:47:13.106Z,9.00
2022-11-12T11:48:13.160Z,8.90
2022-11-12T11:49:13.083Z,9.00
2022-11-12T11:50:13.156Z,8.80
2022-11-12T11:51:13.033Z,8.20
2022-11-12T11:52:14.093Z,8.10
2022-11-12T11:53:13.037Z,8.50
2022-11-12T11:54:13.013Z,8.10
2022-11-12T11:55:12.992Z,7.40
2022-11-12T11:56:13.014Z,8.20
2022-11-12T11:57:13.001Z,7.90
2022-11-12T11:58:13.012Z,7.50
2022-11-12T11:59:12.959Z,7.60
2022-11-12T12:00:13.030Z,7.40
2022-11-12T12:01:12.923Z,7.40
2022-11-12T12:02:12.954Z,8.00
2022-11-12T12:03:12.951Z,7.50
2022-11-12T12:04:12.960Z,7.90
2022-11-12T12:05:12.902Z,8.10
2022-11-12T12:06:12.891Z,8.10
2022-11-12T12:07:12.900Z,7.80
2022-11-12T12:08:12.915Z,8.10
2022-11-12T12:09:12.853Z,8.00
2022-11-12T12:10:12.821Z,8.10
2022-11-12T12:11:12.818Z,8.10
2022-11-12T12:12:13.574Z,7.90
2022-11-12T12:13:12.803Z,8.20
2022-11-12T12:14:12.794Z,8.10
2022-11-12T12:15:12.763Z,7.60
2022-11-12T12:16:12.749Z,7.30
2022-11-12T12:17:12.794Z,7.80
2022-11-12T12:18:12.739Z,8.00
2022-11-12T12:19:12.712Z,8.00
2022-11-12T12:20:12.774Z,8.00
2022-11-12T12:21:13.377Z,8.20
2022-11-12T12:22:12.690Z,8.70
2022-11-12T12:23:12.704Z,7.70
2022-11-12T12:24:12.657Z,7.80
2022-11-12T12:25:13.640Z,8.40
2022-11-12T12:26:12.657Z,8.30
2022-11-12T12:27:12.633Z,8.20
2022-11-12T12:28:12.640Z,8.50
2022-11-12T12:29:12.626Z,8.10
2022-11-12T12:30:12.560Z,8.20
2022-11-12T12:31:12.563Z,8.70
2022-11-12T12:32:12.627Z,8.00
2022-11-12T12:33:12.573Z,8.20
2022-11-12T12:34:12.536Z,8.10
2022-11-12T12:35:12.528Z,8.10
2022-11-12T12:36:12.577Z,8.40
2022-11-12T12:37:12.523Z,8.50
2022-11-12T12:38:12.499Z,7.90
2022-11-12T12:39:12.493Z,8.30
2022-11-12T12:40:12.444Z,8.00
2022-11-12T12:41:12.464Z,7.60
2022-11-12T12:42:12.539Z,7.80
2022-11-12T12:43:12.477Z,7.60
2022-11-12T12:44:12.407Z,7.20
2022-11-12T12:45:12.414Z,7.70
2022-11-12T12:46:12.382Z,7.30
2022-11-12T12:47:12.389Z,8.00
2022-11-12T12:48:12.363Z,7.40
2022-11-12T12:49:12.331Z,7.20
2022-11-12T12:50:12.344Z,7.30
2022-11-12T12:51:12.337Z,7.20
2022-11-12T12:52:12.385Z,7.30
2022-11-12T12:53:12.329Z,7.00
2022-11-12T12:54:12.280Z,7.70
2022-11-12T12:55:13.004Z,7.60
2022-11-12T12:56:13.262Z,7.50
2022-11-12T12:57:12.290Z,7.00
2022-11-12T12:58:12.257Z,7.10
2022-11-12T12:59:12.258Z,6.90
2022-11-12T13:00:15.449Z,6.70
2022-11-12T13:01:13.339Z,6.90
2022-11-12T13:02:12.212Z,6.80
2022-11-12T13:03:12.233Z,6.60
2022-11-12T13:04:12.248Z,6.50
2022-11-12T13:05:12.149Z,6.70
2022-11-12T13:06:12.198Z,6.60
2022-11-12T13:07:12.183Z,6.60
2022-11-12T13:08:12.273Z,6.30
2022-11-12T13:09:12.119Z,6.30
2022-11-12T13:10:12.143Z,5.90
2022-11-12T13:11:12.092Z,5.80
2022-11-12T13:12:12.112Z,4.20
2022-11-12T13:13:12.128Z,3.40
2022-11-12T13:14:12.057Z,4.70
2022-11-12T13:15:12.034Z,5.90
2022-11-12T13:16:12.053Z,5.60
2022-11-12T13:17:12.045Z,6.20
2022-11-12T13:18:17.031Z,6.80
2022-11-12T13:19:12.999Z,6.60
2022-11-12T13:20:12.010Z,6.90
2022-11-12T13:21:11.975Z,6.80
2022-11-12T13:22:11.954Z,6.20
2022-11-12T13:23:11.977Z,6.70
2022-11-12T13:24:12.052Z,6.50
2022-11-12T13:25:11.931Z,6.60
2022-11-12T13:26:12.175Z,7.20
2022-11-12T13:27:12.838Z,7.10
2022-11-12T13:28:11.907Z,6.30
2022-11-12T13:29:11.935Z,7.20
2022-11-12T13:30:12.258Z,7.10
2022-11-12T13:31:11.889Z,5.80
2022-11-12T13:32:11.851Z,6.70
2022-11-12T13:33:11.922Z,6.80
2022-11-12T13:34:12.876Z,6.20
2022-11-12T13:35:12.341Z,5.80
2022-11-12T13:36:47.566Z,6.50
2022-11-12T13:37:13.336Z,7.30
2022-11-12T13:38:11.817Z,6.60
2022-11-12T13:39:11.797Z,7.30
2022-11-12T13:40:11.924Z,7.70
2022-11-12T13:41:11.925Z,7.30
2022-11-12T13:42:11.794Z,7.40
2022-11-12T13:43:11.898Z,7.30
2022-11-12T13:44:11.757Z,7.80
2022-11-12T13:45:11.998Z,7.50
2022-11-12T13:46:11.718Z,7.90
2022-11-12T13:47:11.753Z,7.90
2022-11-12T13:48:12.603Z,8.10
2022-11-12T13:49:11.663Z,8.20
2022-11-12T13:50:11.743Z,8.00
2022-11-12T13:51:11.671Z,8.50
2022-11-12T13:52:12.650Z,8.10
2022-11-12T13:53:11.603Z,7.90
2022-11-12T13:54:11.700Z,7.70
2022-11-12T13:55:11.652Z,7.70
2022-11-12T13:56:11.635Z,7.90
2022-11-12T13:57:14.457Z,8.00
2022-11-12T13:58:12.583Z,8.40
2022-11-12T13:59:11.698Z,8.20
2022-11-12T14:00:11.539Z,8.10
2022-11-12T14:01:11.633Z,7.90
2022-11-12T14:02:11.516Z,8.20
2022-11-12T14:03:11.508Z,8.30
2022-11-12T14:04:11.461Z,8.40
2022-11-12T14:05:11.461Z,8.50
2022-11-12T14:06:11.491Z,8.10
2022-11-12T14:07:11.471Z,7.90
2022-11-12T14:08:11.593Z,6.50
2022-11-12T14:09:11.418Z,6.00
2022-11-12T14:10:11.400Z,6.70
2022-11-12T14:11:11.407Z,6.60
2022-11-12T14:12:11.481Z,5.60
2022-11-12T14:13:11.386Z,5.90
2022-11-12T14:14:11.404Z,5.20
2022-11-12T14:15:11.363Z,4.40
2022-11-12T14:16:11.369Z,5.40
2022-11-12T14:17:11.479Z,5.50
2022-11-12T14:18:11.335Z,4.90
2022-11-12T14:19:11.285Z,4.10
2022-11-12T14:20:11.283Z,4.20
2022-11-12T14:21:11.356Z,4.20
2022-11-12T14:22:11.323Z,4.30
2022-11-12T14:23:11.259Z,3.90
2022-11-12T14:24:11.350Z,3.50
2022-11-12T14:25:11.265Z,3.30
2022-11-12T14:26:11.230Z,3.70
2022-11-12T14:27:11.228Z,4.00
2022-11-12T14:28:11.286Z,3.60
2022-11-12T14:29:11.248Z,3.50
2022-11-12T14:30:11.185Z,3.70
2022-11-12T14:31:11.249Z,3.50
2022-11-12T14:32:11.197Z,3.20
2022-11-12T14:33:11.235Z,3.60
2022-11-12T14:34:11.128Z,3.50
2022-11-12T14:35:11.448Z,3.20
2022-11-12T14:36:11.229Z,3.20
2022-11-12T14:37:11.176Z,4.10
2022-11-12T14:38:11.407Z,3.90
2022-11-12T14:39:12.711Z,3.20
2022-11-12T14:40:11.200Z,3.00
2022-11-12T14:41:11.211Z,3.00
2022-11-12T14:42:11.077Z,2.40
2022-11-12T14:43:14.383Z,2.70
2022-11-12T14:44:13.557Z,2.50
2022-11-12T14:45:12.780Z,2.40
2022-11-12T14:46:11.039Z,2.20
2022-11-12T14:49:11.646Z,111.70
2022-11-12T14:50:11.331Z,149.80
2022-11-12T14:51:11.283Z,152.70
2022-11-12T14:52:10.870Z,52.20
2022-11-12T14:53:11.060Z,31.10
2022-11-12T14:54:10.930Z,14.30
2022-11-12T14:55:10.959Z,8.10
2022-11-12T14:56:10.852Z,4.30
2022-11-12T14:57:10.976Z,4.10
2022-11-12T14:58:10.849Z,3.10
2022-11-12T14:59:12.157Z,1.90
2022-11-12T15:00:10.878Z,1.90
2022-11-12T15:01:23.702Z,1.90
2022-11-12T15:03:10.882Z,2.00
2022-11-12T15:04:10.915Z,1.90
2022-11-12T15:05:10.770Z,1.60
2022-11-12T15:06:10.800Z,1.50
2022-11-12T15:07:10.811Z,1.80
2022-11-12T15:08:10.758Z,2.30
2022-11-12T15:09:10.821Z,2.50
2022-11-12T15:10:10.743Z,2.10
2022-11-12T15:11:10.822Z,2.60
2022-11-12T15:12:10.772Z,3.00
2022-11-12T15:13:10.766Z,3.20
2022-11-12T15:14:10.680Z,4.80
2022-11-12T15:15:10.756Z,2.90
2022-11-12T15:16:13.649Z,2.60
2022-11-12T15:17:10.625Z,3.00
2022-11-12T15:18:11.871Z,2.30
2022-11-12T15:19:11.789Z,3.20
2022-11-12T15:20:11.860Z,4.80
2022-11-12T15:21:11.887Z,2.40
2022-11-12T15:22:11.873Z,2.70
2022-11-12T15:23:11.818Z,2.50
2022-11-12T15:24:11.870Z,1.80
2022-11-12T15:25:11.805Z,2.20
2022-11-12T15:26:14.144Z,2.90
2022-11-12T15:27:12.724Z,3.60
2022-11-12T15:28:11.832Z,4.70
2022-11-12T15:29:11.844Z,6.70
2022-11-12T15:30:11.682Z,7.30
2022-11-12T15:31:12.099Z,9.10
2022-11-12T15:32:13.914Z,7.60
2022-11-12T15:33:12.886Z,14.60
2022-11-12T15:34:11.806Z,19.50
2022-11-12T15:35:11.799Z,10.60
2022-11-12T15:36:11.809Z,8.80
2022-11-12T15:37:11.694Z,3.90
2022-11-12T15:38:11.867Z,3.00
2022-11-12T15:39:12.282Z,2.60
2022-11-12T15:56:20.981Z,4.10
2022-11-12T15:57:22.067Z,45.10
2022-11-12T15:58:21.928Z,20.20
2022-11-12T15:59:21.304Z,12.10
2022-11-12T16:00:21.229Z,12.20
2022-11-12T16:13:50.147Z,3.30
2022-11-12T16:14:49.869Z,13.70
2022-11-12T16:15:49.119Z,10.80
2022-11-12T16:16:49.205Z,8.10
2022-11-12T16:17:49.127Z,6.50
2022-11-12T16:18:48.934Z,5.50
2022-11-12T16:19:48.985Z,4.60
2022-11-12T16:20:48.941Z,3.60
2022-11-12T16:21:49.076Z,3.20
2022-11-12T16:22:48.935Z,3.60
2022-11-12T16:23:48.907Z,3.90
2022-11-12T16:24:48.898Z,3.20
2022-11-12T16:25:48.796Z,2.30
